Time;durP1;ratioP1;P1;durP2;ratioP2;P2;SDS_P1;SDS_P2;PMS_P1;PMS_P2;Temp;Humidity;BMP_temperature;BMP_pressure;BME280_temperature;BME280_humidity;BME280_pressure;Samples;Min_cycle;Max_cycle;Signal;HPM_P1;HPM_P2
2023/04/16 00:00:33;;;;;;;65.38;22.88;;;8.30;99.90;;;;;;5144372;27;20443;-69
2023/04/16 00:02:59;;;;;;;63.53;23.85;;;8.30;99.90;;;;;;5119124;27;20114;-67
2023/04/16 00:05:24;;;;;;;67.57;25.05;;;8.30;99.90;;;;;;5114953;27;20047;-64
2023/04/16 00:07:51;;;;;;;71.65;25.08;;;8.30;99.90;;;;;;5113266;27;20035;-67
2023/04/16 00:10:17;;;;;;;71.00;24.27;;;8.30;99.90;;;;;;5111397;27;20055;-65
2023/04/16 00:12:43;;;;;;;66.38;23.77;;;8.30;99.90;;;;;;5128377;27;20087;-66
2023/04/16 00:15:09;;;;;;;62.20;25.02;;;8.30;99.90;;;;;;5120395;27;20047;-70
2023/04/16 00:17:35;;;;;;;70.57;25.85;;;8.30;99.90;;;;;;5124237;27;20097;-69
2023/04/16 00:20:00;;;;;;;75.32;24.42;;;8.30;99.90;;;;;;5115823;27;20092;-68
2023/04/16 00:22:26;;;;;;;76.78;25.13;;;8.30;99.90;;;;;;5126665;27;20039;-67
2023/04/16 00:24:52;;;;;;;69.68;24.48;;;8.30;99.90;;;;;;5123169;27;20179;-67
2023/04/16 00:27:19;;;;;;;68.18;24.52;;;8.30;99.90;;;;;;5115324;27;20046;-66
2023/04/16 00:29:44;;;;;;;71.85;25.52;;;8.30;99.90;;;;;;5112679;27;20042;-66
2023/04/16 00:32:10;;;;;;;76.30;25.02;;;8.30;99.90;;;;;;5119670;28;20460;-66
2023/04/16 00:34:36;;;;;;;76.38;25.05;;;8.30;99.90;;;;;;5110811;28;20458;-69
2023/04/16 00:37:01;;;;;;;69.97;24.90;;;8.30;99.90;;;;;;5128799;28;20056;-66
2023/04/16 00:39:27;;;;;;;80.10;25.65;;;8.30;99.90;;;;;;5119621;28;20052;-65
2023/04/16 00:41:53;;;;;;;76.15;25.95;;;8.30;99.90;;;;;;5118805;28;20046;-66
2023/04/16 00:44:18;;;;;;;71.32;24.02;;;8.30;99.90;;;;;;5105375;28;20059;-66
2023/04/16 00:46:45;;;;;;;78.20;26.77;;;8.30;99.90;;;;;;5109443;28;20039;-65
2023/04/16 00:49:11;;;;;;;80.75;26.23;;;8.30;99.90;;;;;;5110653;28;20051;-68
2023/04/16 00:51:37;;;;;;;81.65;26.63;;;8.30;99.90;;;;;;5096187;28;20097;-69
2023/04/16 00:54:03;;;;;;;82.30;25.75;;;8.30;99.90;;;;;;5151047;27;20040;-66
2023/04/16 00:56:29;;;;;;;87.53;28.17;;;8.30;99.90;;;;;;5111631;28;20044;-64
2023/04/16 00:58:55;;;;;;;66.93;25.55;;;8.30;99.90;;;;;;5120914;28;20058;-68
2023/04/16 01:01:21;;;;;;;82.75;26.38;;;8.30;99.90;;;;;;5117048;27;20071;-68
2023/04/16 01:03:48;;;;;;;86.20;25.70;;;8.20;99.90;;;;;;5120207;28;20047;-65
2023/04/16 01:06:18;;;;;;;95.30;26.85;;;8.30;99.90;;;;;;5102713;28;20044;-68
2023/04/16 01:08:45;;;;;;;77.20;25.60;;;8.20;99.90;;;;;;5092057;28;20088;-66
2023/04/16 01:11:11;;;;;;;87.85;25.88;;;8.20;99.90;;;;;;5091858;28;20040;-68
2023/04/16 01:13:39;;;;;;;78.55;25.15;;;8.20;99.90;;;;;;5093654;28;20070;-67
2023/04/16 01:16:10;;;;;;;85.65;25.98;;;8.30;99.90;;;;;;5103705;28;20035;-65
2023/04/16 01:18:36;;;;;;;75.10;26.23;;;8.20;99.90;;;;;;5095465;28;20093;-67
2023/04/16 01:21:03;;;;;;;82.32;26.88;;;8.20;99.90;;;;;;5091080;28;20453;-67
2023/04/16 01:23:29;;;;;;;83.22;26.83;;;8.20;99.90;;;;;;5136962;27;20057;-65
2023/04/16 01:25:55;;;;;;;70.30;26.23;;;8.20;99.90;;;;;;5095485;28;20027;-67
2023/04/16 01:28:21;;;;;;;84.45;27.80;;;8.20;99.90;;;;;;5103318;28;20475;-67
2023/04/16 01:30:46;;;;;;;84.35;27.88;;;8.20;99.90;;;;;;5098579;28;20060;-67
2023/04/16 01:33:13;;;;;;;84.70;28.08;;;8.20;99.90;;;;;;5094908;28;20031;-68
2023/04/16 01:35:42;;;;;;;83.30;29.23;;;8.20;99.90;;;;;;5090023;28;20048;-68
2023/04/16 01:38:08;;;;;;;75.55;27.33;;;8.20;99.90;;;;;;5092449;28;20117;-68
2023/04/16 01:40:34;;;;;;;88.53;28.58;;;8.20;99.90;;;;;;5092983;28;20040;-68
2023/04/16 01:43:00;;;;;;;88.57;28.63;;;8.20;99.90;;;;;;5098109;28;20059;-67
2023/04/16 01:45:26;;;;;;;76.13;28.58;;;8.20;99.90;;;;;;5104323;28;20478;-67
2023/04/16 01:47:52;;;;;;;84.47;29.17;;;8.30;99.90;;;;;;5079508;28;20036;-67
2023/04/16 01:50:19;;;;;;;89.82;29.15;;;8.20;99.90;;;;;;5104258;28;20284;-68
2023/04/16 01:52:45;;;;;;;87.30;28.77;;;8.30;99.90;;;;;;5089091;28;20511;-67
2023/04/16 01:55:10;;;;;;;88.10;28.75;;;8.30;99.90;;;;;;5090283;28;20032;-66
2023/04/16 01:57:36;;;;;;;76.88;28.65;;;8.20;99.90;;;;;;5111937;28;20103;-66
2023/04/16 02:00:03;;;;;;;87.82;29.35;;;8.20;99.90;;;;;;5101591;28;20031;-68
2023/04/16 02:02:28;;;;;;;96.82;31.27;;;8.20;99.90;;;;;;5111554;28;20043;-66
2023/04/16 02:04:58;;;;;;;85.55;28.40;;;8.20;99.90;;;;;;5107492;27;20047;-65
2023/04/16 02:07:24;;;;;;;79.75;30.08;;;8.20;99.90;;;;;;5118188;27;20035;-67
2023/04/16 02:09:50;;;;;;;82.32;28.58;;;8.20;99.90;;;;;;5124990;27;20516;-69
2023/04/16 02:12:16;;;;;;;79.30;29.70;;;8.20;99.90;;;;;;5127349;27;20027;-65
2023/04/16 02:14:42;;;;;;;77.70;28.77;;;8.20;99.90;;;;;;5118758;27;20049;-65
2023/04/16 02:17:08;;;;;;;76.90;28.88;;;8.20;99.90;;;;;;5117668;27;20051;-66
2023/04/16 02:19:34;;;;;;;74.10;28.13;;;8.20;99.90;;;;;;5123473;27;20061;-67
2023/04/16 02:22:00;;;;;;;81.45;29.02;;;8.20;99.90;;;;;;5113017;27;20028;-67
2023/04/16 02:24:26;;;;;;;75.70;29.27;;;8.20;99.90;;;;;;5117716;27;20080;-65
2023/04/16 02:26:52;;;;;;;70.35;29.10;;;8.20;99.90;;;;;;5105460;27;20035;-65
2023/04/16 02:29:18;;;;;;;78.22;27.75;;;8.30;99.90;;;;;;5128074;27;20451;-67
2023/04/16 02:31:44;;;;;;;70.97;28.27;;;8.30;99.90;;;;;;5128496;27;20043;-68
2023/04/16 02:34:10;;;;;;;66.25;26.83;;;8.30;99.90;;;;;;5129411;27;20773;-68
2023/04/16 02:36:35;;;;;;;70.85;28.40;;;8.20;99.90;;;;;;5112922;27;20035;-66
2023/04/16 02:39:01;;;;;;;65.78;27.15;;;8.30;99.90;;;;;;5112012;27;20075;-65
2023/04/16 02:41:27;;;;;;;62.08;26.23;;;8.20;99.90;;;;;;5153738;27;20114;-67
2023/04/16 02:43:52;;;;;;;68.20;27.98;;;8.30;99.90;;;;;;5125829;27;20036;-67
2023/04/16 02:46:18;;;;;;;71.25;28.25;;;8.20;99.90;;;;;;5116766;27;20047;-66
2023/04/16 02:48:44;;;;;;;60.28;26.98;;;8.20;99.90;;;;;;5110258;27;20051;-69
2023/04/16 02:51:09;;;;;;;64.53;26.75;;;8.20;99.90;;;;;;5097616;27;20067;-68
2023/04/16 02:53:35;;;;;;;65.25;26.90;;;8.20;99.90;;;;;;5109175;27;20043;-64
2023/04/16 02:56:01;;;;;;;57.10;26.17;;;8.20;99.90;;;;;;5116497;27;20100;-65
2023/04/16 02:58:26;;;;;;;67.60;27.20;;;8.20;99.90;;;;;;5109826;27;20032;-66
2023/04/16 03:00:53;;;;;;;58.95;27.70;;;8.20;99.90;;;;;;5111023;27;20451;-65
2023/04/16 03:03:20;;;;;;;57.30;25.55;;;8.20;99.90;;;;;;5124935;27;20031;-66
2023/04/16 03:05:46;;;;;;;59.22;26.98;;;8.20;99.90;;;;;;5113201;27;20565;-67
2023/04/16 03:08:12;;;;;;;53.67;25.65;;;8.20;99.90;;;;;;5113655;27;20118;-66
2023/04/16 03:10:37;;;;;;;61.03;26.30;;;8.20;99.90;;;;;;5120002;27;20179;-66
2023/04/16 03:13:03;;;;;;;58.53;26.90;;;8.10;99.90;;;;;;5116150;27;20044;-66
2023/04/16 03:15:30;;;;;;;62.05;26.20;;;8.20;99.90;;;;;;5117713;27;20049;-64
2023/04/16 03:17:55;;;;;;;63.72;25.73;;;8.20;99.90;;;;;;5124188;27;20073;-68
2023/04/16 03:20:21;;;;;;;61.70;26.88;;;8.10;99.90;;;;;;5097626;27;20079;-66
2023/04/16 03:22:47;;;;;;;63.33;25.92;;;8.20;99.90;;;;;;5112210;27;20036;-67
2023/04/16 03:25:13;;;;;;;55.97;25.70;;;8.10;99.90;;;;;;5120410;27;20069;-69
2023/04/16 03:27:39;;;;;;;64.40;25.25;;;8.10;99.90;;;;;;5117880;27;20088;-66
2023/04/16 03:30:10;;;;;;;66.30;27.55;;;8.10;99.90;;;;;;5118426;27;20044;-67
2023/04/16 03:32:36;;;;;;;62.05;27.60;;;8.10;99.90;;;;;;5141532;27;20415;-67
2023/04/16 03:35:06;;;;;;;60.25;27.05;;;8.10;99.90;;;;;;5112391;27;20043;-65
2023/04/16 03:37:32;;;;;;;59.50;26.90;;;8.10;99.90;;;;;;5124106;27;20039;-65
2023/04/16 03:39:58;;;;;;;57.13;27.90;;;8.10;99.90;;;;;;5118919;27;20039;-67
2023/04/16 03:42:23;;;;;;;52.63;27.60;;;8.10;99.90;;;;;;5148706;27;20027;-67
2023/04/16 03:44:50;;;;;;;49.60;25.80;;;8.10;99.90;;;;;;5119238;27;20039;-68
2023/04/16 03:47:15;;;;;;;53.60;27.17;;;8.10;99.90;;;;;;5105952;27;20051;-68
2023/04/16 03:49:41;;;;;;;59.97;27.05;;;8.10;99.90;;;;;;5126052;27;20431;-68
2023/04/16 03:52:06;;;;;;;53.40;27.92;;;8.10;99.90;;;;;;5107595;27;20135;-67
2023/04/16 03:54:32;;;;;;;60.40;27.13;;;8.10;99.90;;;;;;5121567;27;20050;-68
2023/04/16 03:56:58;;;;;;;58.20;27.30;;;8.10;99.90;;;;;;5123776;27;20031;-68
2023/04/16 03:59:23;;;;;;;54.83;27.83;;;8.10;99.90;;;;;;5124519;27;20042;-67
2023/04/16 04:01:49;;;;;;;55.67;26.45;;;8.10;99.90;;;;;;5099236;27;20035;-67
2023/04/16 04:04:15;;;;;;;60.72;26.70;;;8.10;99.90;;;;;;5121396;27;20070;-66
2023/04/16 04:06:41;;;;;;;54.20;26.42;;;8.10;99.90;;;;;;5117902;27;20120;-68
2023/04/16 04:09:06;;;;;;;60.10;27.02;;;8.10;99.90;;;;;;5109413;28;20047;-67
2023/04/16 04:11:32;;;;;;;56.08;26.67;;;8.10;99.90;;;;;;5109127;27;20046;-66
2023/04/16 04:13:58;;;;;;;56.72;27.88;;;8.10;99.90;;;;;;5126037;27;20102;-67
2023/04/16 04:16:24;;;;;;;57.20;26.85;;;8.10;99.90;;;;;;5114468;27;20394;-69
2023/04/16 04:18:49;;;;;;;62.40;27.65;;;8.10;99.90;;;;;;5111359;28;20047;-67
2023/04/16 04:21:15;;;;;;;57.40;26.73;;;8.10;99.90;;;;;;5117962;27;20151;-67
2023/04/16 04:23:42;;;;;;;58.63;28.25;;;8.20;99.90;;;;;;5121599;27;20031;-66
2023/04/16 04:26:08;;;;;;;50.70;26.95;;;8.10;99.90;;;;;;5099088;28;20049;-65
2023/04/16 04:28:34;;;;;;;54.72;27.00;;;8.10;99.90;;;;;;5096896;27;20485;-67
2023/04/16 04:31:00;;;;;;;60.15;27.95;;;8.20;99.90;;;;;;5102447;28;20115;-65
2023/04/16 04:33:26;;;;;;;48.78;27.75;;;8.20;99.90;;;;;;5118090;27;20075;-68
2023/04/16 04:35:53;;;;;;;50.70;28.15;;;8.20;99.90;;;;;;5119476;28;20038;-68
2023/04/16 04:38:20;;;;;;;47.97;26.70;;;8.20;99.90;;;;;;5114809;28;20035;-65
2023/04/16 04:40:47;;;;;;;54.08;28.02;;;8.20;99.90;;;;;;5110813;28;20248;-67
2023/04/16 04:43:12;;;;;;;55.53;27.98;;;8.10;99.90;;;;;;5115944;28;20039;-68
2023/04/16 04:45:39;;;;;;;55.92;26.98;;;8.10;99.90;;;;;;5124618;28;20533;-67
2023/04/16 04:48:05;;;;;;;54.92;28.45;;;8.10;99.90;;;;;;5117423;28;20040;-66
2023/04/16 04:50:30;;;;;;;57.72;27.48;;;8.20;99.90;;;;;;5116866;28;20040;-67
2023/04/16 04:52:56;;;;;;;58.35;28.17;;;8.20;99.90;;;;;;5117625;28;20043;-67
2023/04/16 04:55:22;;;;;;;51.80;26.58;;;8.10;99.90;;;;;;5103815;28;20043;-67
2023/04/16 04:57:48;;;;;;;55.25;28.40;;;8.10;99.90;;;;;;5108916;27;20058;-67
2023/04/16 05:00:14;;;;;;;58.47;27.58;;;8.20;99.90;;;;;;5120818;27;20031;-65
2023/04/16 05:02:40;;;;;;;56.97;28.35;;;8.10;99.90;;;;;;5099424;28;20039;-69
2023/04/16 05:05:06;;;;;;;64.80;28.67;;;8.20;99.90;;;;;;5113086;28;20066;-68
2023/04/16 05:07:32;;;;;;;57.90;29.38;;;8.20;99.90;;;;;;5108777;27;20035;-70
2023/04/16 05:09:57;;;;;;;53.47;27.15;;;8.20;99.90;;;;;;5112603;27;20035;-71
2023/04/16 05:12:23;;;;;;;51.78;25.88;;;8.10;99.90;;;;;;5119260;27;20042;-65
2023/04/16 05:14:49;;;;;;;52.22;26.55;;;8.10;99.90;;;;;;5112271;28;20040;-69
2023/04/16 05:17:15;;;;;;;46.90;27.60;;;8.10;99.90;;;;;;5112200;27;20035;-67
2023/04/16 05:19:41;;;;;;;52.08;25.92;;;8.10;99.90;;;;;;5111796;28;20035;-67
2023/04/16 05:22:06;;;;;;;54.45;27.83;;;8.10;99.90;;;;;;5094476;28;20202;-68
2023/04/16 05:24:32;;;;;;;55.53;27.60;;;8.10;99.90;;;;;;5118527;27;20050;-66
2023/04/16 05:26:57;;;;;;;50.78;27.40;;;8.10;99.90;;;;;;5110473;28;20035;-68
2023/04/16 05:29:23;;;;;;;55.20;27.55;;;8.10;99.90;;;;;;5111749;28;20043;-68
2023/04/16 05:31:49;;;;;;;56.00;27.17;;;8.10;99.90;;;;;;5097711;27;20527;-70
2023/04/16 05:34:15;;;;;;;53.90;28.33;;;8.10;99.90;;;;;;5117340;27;20047;-69
2023/04/16 05:36:41;;;;;;;52.60;26.27;;;8.10;99.90;;;;;;5109266;27;20401;-67
2023/04/16 05:39:07;;;;;;;52.58;26.85;;;8.10;99.90;;;;;;5110296;28;20043;-70
2023/04/16 05:41:33;;;;;;;53.40;26.75;;;8.20;99.90;;;;;;5110063;28;20533;-66
2023/04/16 05:43:59;;;;;;;51.63;27.15;;;8.10;99.90;;;;;;5109763;27;20402;-68
2023/04/16 05:46:24;;;;;;;52.22;27.73;;;8.10;99.90;;;;;;5110625;27;20059;-68
2023/04/16 05:48:50;;;;;;;57.63;26.73;;;8.10;99.90;;;;;;5092783;28;20046;-69
2023/04/16 05:51:16;;;;;;;54.95;27.35;;;8.10;99.90;;;;;;5108280;28;20050;-69
2023/04/16 05:53:42;;;;;;;49.58;27.23;;;8.20;99.90;;;;;;5145190;27;20398;-71
2023/04/16 05:56:08;;;;;;;52.05;27.00;;;8.20;99.90;;;;;;5120665;27;20047;-67
2023/04/16 05:58:33;;;;;;;54.58;27.10;;;8.30;99.90;;;;;;5131782;27;20035;-72
2023/04/16 06:01:00;;;;;;;53.13;27.42;;;8.30;99.90;;;;;;5123047;27;20027;-70
2023/04/16 06:03:26;;;;;;;47.85;26.15;;;8.40;99.90;;;;;;5110989;28;20501;-69
2023/04/16 06:05:52;;;;;;;51.75;27.25;;;8.40;99.90;;;;;;5111079;28;20090;-67
2023/04/16 06:08:17;;;;;;;50.53;27.17;;;8.50;99.90;;;;;;5119775;27;20050;-69
2023/04/16 06:10:45;;;;;;;47.78;26.67;;;8.50;99.90;;;;;;5117054;27;20031;-66
2023/04/16 06:13:11;;;;;;;49.38;27.55;;;8.50;99.90;;;;;;5109965;28;20040;-69
2023/04/16 06:15:37;;;;;;;50.13;27.27;;;8.60;99.90;;;;;;5111219;28;20040;-66
2023/04/16 06:18:03;;;;;;;50.22;26.63;;;8.60;99.90;;;;;;5111246;28;20043;-70
2023/04/16 06:20:29;;;;;;;50.47;26.67;;;8.70;99.90;;;;;;5111074;28;20039;-68
2023/04/16 06:22:55;;;;;;;51.58;26.40;;;8.70;99.90;;;;;;5110979;27;20128;-68
2023/04/16 06:25:20;;;;;;;46.03;26.45;;;8.80;99.90;;;;;;5110043;27;20036;-67
2023/04/16 06:27:46;;;;;;;46.92;27.38;;;8.90;99.90;;;;;;5110799;28;20086;-71
2023/04/16 06:30:13;;;;;;;43.15;26.15;;;8.90;99.90;;;;;;5093804;28;20055;-70
2023/04/16 06:32:39;;;;;;;41.67;24.92;;;9.00;99.90;;;;;;5159159;27;20047;-66
2023/04/16 06:35:05;;;;;;;44.03;25.50;;;9.00;99.90;;;;;;5123527;27;20091;-69
2023/04/16 06:37:31;;;;;;;44.65;27.10;;;9.00;99.90;;;;;;5106525;27;20118;-70
2023/04/16 06:39:57;;;;;;;45.10;25.25;;;9.00;99.90;;;;;;5109066;27;20467;-66
2023/04/16 06:42:22;;;;;;;44.38;24.50;;;9.10;99.90;;;;;;5152774;27;22174;-66
2023/04/16 06:44:48;;;;;;;47.35;25.23;;;9.20;99.90;;;;;;5092768;28;20118;-68
2023/04/16 06:47:15;;;;;;;45.30;24.60;;;9.30;99.90;;;;;;5109799;27;20040;-68
2023/04/16 06:49:40;;;;;;;39.28;25.30;;;9.40;99.90;;;;;;5110042;28;20039;-68
2023/04/16 06:52:06;;;;;;;42.42;24.20;;;9.50;99.90;;;;;;5093898;28;20086;-65
2023/04/16 06:54:32;;;;;;;40.05;24.42;;;9.60;99.90;;;;;;5108718;28;20067;-67
2023/04/16 06:56:58;;;;;;;43.25;23.58;;;9.80;99.90;;;;;;5107693;27;20035;-67
2023/04/16 06:59:23;;;;;;;38.22;22.40;;;9.70;99.90;;;;;;5109980;28;20032;-68
2023/04/16 07:01:50;;;;;;;38.85;23.08;;;9.70;99.90;;;;;;5107173;28;20039;-68
2023/04/16 07:04:16;;;;;;;38.15;22.20;;;9.70;99.90;;;;;;5110860;27;20451;-67
2023/04/16 07:06:41;;;;;;;42.60;22.90;;;9.70;99.90;;;;;;5111161;27;20172;-68
2023/04/16 07:09:07;;;;;;;39.85;22.63;;;9.80;99.90;;;;;;5113482;27;20508;-71
2023/04/16 07:11:33;;;;;;;40.03;23.30;;;9.80;99.90;;;;;;5112198;27;20047;-67
2023/04/16 07:13:58;;;;;;;39.53;21.77;;;9.80;99.90;;;;;;5112082;27;20035;-69
2023/04/16 07:16:24;;;;;;;41.33;22.05;;;9.80;99.90;;;;;;5095385;27;20083;-68
2023/04/16 07:18:50;;;;;;;38.67;22.05;;;9.80;99.90;;;;;;5116013;27;20103;-69
2023/04/16 07:21:15;;;;;;;41.72;22.42;;;9.80;99.90;;;;;;5115896;27;20042;-71
2023/04/16 07:23:41;;;;;;;38.72;21.90;;;9.80;99.90;;;;;;5150514;27;20047;-68
2023/04/16 07:26:07;;;;;;;36.38;21.27;;;9.80;99.90;;;;;;5115383;27;20511;-66
2023/04/16 07:28:32;;;;;;;36.97;21.45;;;9.80;99.90;;;;;;5115182;27;20511;-70
2023/04/16 07:30:58;;;;;;;37.17;21.08;;;9.80;99.90;;;;;;5107879;27;20472;-70
2023/04/16 07:33:24;;;;;;;34.17;20.23;;;9.70;99.90;;;;;;5093494;27;20107;-70
2023/04/16 07:35:50;;;;;;;36.17;20.23;;;9.70;99.90;;;;;;5146026;27;20043;-68
2023/04/16 07:38:16;;;;;;;31.88;20.15;;;9.60;99.90;;;;;;5108714;27;20074;-70
2023/04/16 07:40:41;;;;;;;37.70;19.58;;;9.60;99.90;;;;;;5128712;27;20063;-72
2023/04/16 07:43:07;;;;;;;35.15;20.08;;;9.60;99.90;;;;;;5114851;27;20138;-69
2023/04/16 07:45:33;;;;;;;39.47;19.15;;;9.70;99.90;;;;;;5112207;27;20144;-69
2023/04/16 07:47:59;;;;;;;35.75;20.25;;;9.80;99.90;;;;;;5093197;27;20082;-69
2023/04/16 07:50:24;;;;;;;37.20;19.58;;;9.90;99.90;;;;;;5112502;27;20042;-67
2023/04/16 07:52:50;;;;;;;37.83;19.63;;;10.00;99.90;;;;;;5108792;27;20963;-69
2023/04/16 07:55:16;;;;;;;36.20;20.40;;;10.10;99.90;;;;;;5156252;27;20057;-69
2023/04/16 07:57:41;;;;;;;34.25;18.73;;;10.20;99.90;;;;;;5107866;27;20423;-71
2023/04/16 08:00:09;;;;;;;32.08;19.63;;;10.30;99.90;;;;;;5107575;27;20118;-67
2023/04/16 08:02:34;;;;;;;34.55;19.20;;;10.40;99.90;;;;;;5111115;27;20049;-69
2023/04/16 08:05:00;;;;;;;35.22;18.30;;;10.50;99.90;;;;;;5144476;27;20128;-71
2023/04/16 08:07:26;;;;;;;33.65;19.10;;;10.50;99.90;;;;;;5124206;27;20066;-70
2023/04/16 08:09:52;;;;;;;35.65;18.38;;;10.70;99.90;;;;;;5112588;27;20042;-67
2023/04/16 08:12:18;;;;;;;32.13;18.48;;;11.00;99.90;;;;;;5110686;27;20070;-70
2023/04/16 08:14:45;;;;;;;33.95;17.80;;;11.10;99.90;;;;;;5117850;27;20527;-70
2023/04/16 08:17:11;;;;;;;30.98;16.90;;;11.10;99.90;;;;;;5112120;27;20034;-72
2023/04/16 08:19:37;;;;;;;32.70;17.27;;;11.00;99.90;;;;;;5160658;27;20113;-69
2023/04/16 08:22:02;;;;;;;32.90;17.65;;;11.00;99.90;;;;;;5121807;27;20456;-68
2023/04/16 08:24:28;;;;;;;30.70;18.20;;;11.10;99.90;;;;;;5109056;27;20122;-70
2023/04/16 08:26:54;;;;;;;34.33;18.48;;;11.30;99.90;;;;;;5131401;27;20079;-70
2023/04/16 08:29:20;;;;;;;31.73;18.00;;;11.60;99.90;;;;;;5115266;27;20054;-71
2023/04/16 08:31:46;;;;;;;28.27;16.52;;;11.90;99.90;;;;;;5111072;28;20097;-67
2023/04/16 08:34:12;;;;;;;30.00;16.90;;;12.30;99.90;;;;;;5106362;27;20138;-68
2023/04/16 08:36:37;;;;;;;26.67;15.27;;;12.40;99.90;;;;;;5146887;27;20121;-70
2023/04/16 08:39:03;;;;;;;27.65;16.15;;;12.70;99.90;;;;;;5108834;27;20075;-68
2023/04/16 08:41:35;;;;;;;28.15;15.60;;;13.00;99.90;;;;;;5130002;27;20385;-68
2023/04/16 08:44:06;;;;;;;26.02;15.85;;;13.10;99.90;;;;;;5117216;28;20100;-66
2023/04/16 08:46:36;;;;;;;29.27;16.50;;;13.10;99.90;;;;;;5111031;27;20087;-69
2023/04/16 08:49:05;;;;;;;25.58;16.70;;;13.10;99.90;;;;;;5115276;27;20401;-68
2023/04/16 08:51:34;;;;;;;29.85;16.83;;;13.00;99.90;;;;;;5132459;27;20046;-69
2023/04/16 08:54:10;;;;;;;31.42;16.67;;;12.80;99.90;;;;;;5112981;27;20482;-68
2023/04/16 08:56:38;;;;;;;26.80;15.32;;;13.00;99.90;;;;;;5115050;27;20042;-66
2023/04/16 08:59:04;;;;;;;28.77;16.00;;;12.90;99.90;;;;;;5114059;27;20031;-66
2023/04/16 09:01:34;;;;;;;24.27;14.68;;;12.90;99.90;;;;;;5125899;27;20031;-70
2023/04/16 09:04:01;;;;;;;25.20;15.30;;;13.00;99.90;;;;;;5100370;28;20050;-69
2023/04/16 09:06:27;;;;;;;31.70;15.98;;;13.20;99.90;;;;;;5109377;27;20047;-69
2023/04/16 09:08:54;;;;;;;28.65;15.45;;;13.30;99.90;;;;;;5110751;28;20493;-67
2023/04/16 09:11:20;;;;;;;30.50;15.43;;;13.60;99.90;;;;;;5121839;27;20409;-71
2023/04/16 09:13:46;;;;;;;23.80;14.55;;;13.60;99.90;;;;;;5114698;27;20051;-71
2023/04/16 09:16:13;;;;;;;25.38;15.95;;;13.70;99.90;;;;;;5144349;27;20035;-67
2023/04/16 09:18:39;;;;;;;27.55;14.88;;;13.80;99.90;;;;;;5111684;27;20031;-68
2023/04/16 09:21:06;;;;;;;23.58;14.15;;;14.10;99.90;;;;;;5111257;27;20038;-68
2023/04/16 09:23:32;;;;;;;26.67;14.30;;;14.30;99.90;;;;;;5128388;27;20031;-70
2023/04/16 09:25:58;;;;;;;26.63;15.93;;;14.70;99.90;;;;;;5132296;27;20041;-68
2023/04/16 09:28:40;;;;;;;32.33;15.38;;;14.60;99.90;;;;;;5133508;27;20686;-69
2023/04/16 09:31:09;;;;;;;25.63;14.50;;;14.70;99.90;;;;;;5111358;28;20035;-69
2023/04/16 09:33:35;;;;;;;24.60;14.30;;;14.70;99.90;;;;;;5110984;28;20122;-73
2023/04/16 09:36:01;;;;;;;23.48;13.63;;;14.50;99.90;;;;;;5126261;27;20119;-67
2023/04/16 09:38:53;;;;;;;24.92;13.75;;;14.40;99.90;;;;;;5120186;27;20504;-67
2023/04/16 09:41:23;;;;;;;22.70;13.82;;;14.20;99.90;;;;;;5110911;28;20042;-68
2023/04/16 09:44:02;;;;;;;27.08;14.45;;;14.40;99.90;;;;;;5112847;27;20127;-68
2023/04/16 09:46:30;;;;;;;27.08;14.10;;;14.40;99.90;;;;;;5134693;27;20038;-72
2023/04/16 09:48:56;;;;;;;25.38;14.30;;;14.50;99.90;;;;;;5129144;27;20389;-67
2023/04/16 09:51:22;;;;;;;28.55;14.30;;;14.40;99.90;;;;;;5115659;27;20035;-67
2023/04/16 09:53:52;;;;;;;25.17;13.23;;;14.50;99.90;;;;;;5117714;27;20035;-69
2023/04/16 09:56:23;;;;;;;24.45;13.63;;;14.80;99.90;;;;;;5135321;27;20049;-69
2023/04/16 09:58:49;;;;;;;25.15;14.00;;;14.90;99.90;;;;;;5114229;27;20027;-68
2023/04/16 10:01:17;;;;;;;21.98;12.98;;;14.80;99.90;;;;;;5115130;27;20047;-71
2023/04/16 10:03:42;;;;;;;31.27;13.75;;;14.90;99.90;;;;;;5118783;27;20038;-68
2023/04/16 10:06:19;;;;;;;24.92;13.32;;;15.00;99.90;;;;;;5114665;27;20063;-68
2023/04/16 10:08:52;;;;;;;22.63;12.70;;;15.00;99.90;;;;;;5120943;27;20075;-69
2023/04/16 10:11:20;;;;;;;21.00;13.02;;;15.00;99.90;;;;;;5115285;27;20517;-70
2023/04/16 10:13:45;;;;;;;22.30;12.93;;;15.00;99.90;;;;;;5128599;27;20035;-71
2023/04/16 10:16:11;;;;;;;21.08;12.60;;;15.00;99.90;;;;;;5120012;27;20398;-70
2023/04/16 10:18:39;;;;;;;23.90;13.10;;;15.00;99.90;;;;;;5115282;27;20054;-69
2023/04/16 10:21:05;;;;;;;20.92;13.02;;;15.10;99.90;;;;;;5123692;27;20385;-65
2023/04/16 10:23:32;;;;;;;20.85;12.48;;;15.20;99.90;;;;;;5113966;27;20065;-69
2023/04/16 10:25:59;;;;;;;21.52;13.15;;;15.50;99.90;;;;;;5129269;27;20049;-67
2023/04/16 10:28:25;;;;;;;18.15;12.43;;;15.60;99.90;;;;;;5129266;27;20087;-71
2023/04/16 10:30:52;;;;;;;25.88;11.93;;;15.60;99.90;;;;;;5114534;27;20082;-69
2023/04/16 10:33:39;;;;;;;22.38;13.25;;;15.80;99.90;;;;;;5145717;27;20106;-69
2023/04/16 10:36:08;;;;;;;26.08;12.75;;;15.70;99.90;;;;;;5114044;27;20524;-68
2023/04/16 10:38:37;;;;;;;23.90;12.95;;;15.50;99.90;;;;;;5122792;27;20540;-66
2023/04/16 10:41:04;;;;;;;21.63;12.00;;;15.30;99.90;;;;;;5117848;27;20041;-68
2023/04/16 10:43:32;;;;;;;19.90;11.70;;;15.20;99.90;;;;;;5115076;27;20379;-71
2023/04/16 10:46:20;;;;;;;22.00;12.65;;;15.10;99.90;;;;;;5128752;27;20043;-67
2023/04/16 10:48:47;;;;;;;19.50;11.70;;;15.20;99.90;;;;;;5095051;27;20042;-70
2023/04/16 10:51:34;;;;;;;23.40;12.52;;;15.10;99.90;;;;;;5114082;27;20083;-66
2023/04/16 10:54:11;;;;;;;22.27;11.93;;;15.00;99.90;;;;;;5112594;27;20043;-67
2023/04/16 10:56:37;;;;;;;21.50;12.88;;;14.90;99.90;;;;;;5118449;27;20035;-69
2023/04/16 10:59:08;;;;;;;22.27;11.75;;;14.70;99.90;;;;;;5115274;27;20389;-68
2023/04/16 11:01:35;;;;;;;24.92;12.80;;;14.70;99.90;;;;;;5115245;27;20039;-68
2023/04/16 11:04:24;;;;;;;23.25;12.73;;;14.60;99.90;;;;;;5120553;27;20061;-70
2023/04/16 11:07:17;;;;;;;21.52;12.15;;;14.80;99.90;;;;;;5114067;27;20069;-69
2023/04/16 11:09:46;;;;;;;22.98;12.77;;;14.90;99.90;;;;;;5115611;27;20046;-71
2023/04/16 11:12:14;;;;;;;22.48;13.18;;;14.90;99.90;;;;;;5114199;27;20461;-71
2023/04/16 11:14:40;;;;;;;23.77;12.57;;;14.80;99.90;;;;;;5119281;27;20122;-68
2023/04/16 11:17:06;;;;;;;18.85;12.23;;;14.70;99.90;;;;;;5113484;27;20047;-73
2023/04/16 11:19:35;;;;;;;20.85;12.30;;;14.50;99.90;;;;;;5096075;27;20566;-66
2023/04/16 11:22:01;;;;;;;26.23;12.25;;;14.50;99.90;;;;;;5127302;27;20485;-70
2023/04/16 11:24:33;;;;;;;21.65;12.85;;;14.40;99.90;;;;;;5102531;27;20035;-69
2023/04/16 11:27:00;;;;;;;21.08;11.07;;;14.50;99.90;;;;;;5113326;27;20050;-70
2023/04/16 11:29:26;;;;;;;22.95;12.35;;;14.50;99.90;;;;;;5095450;27;20047;-72
2023/04/16 11:31:53;;;;;;;21.35;12.00;;;14.70;99.90;;;;;;5128287;27;20046;-72
2023/04/16 11:34:19;;;;;;;23.00;12.45;;;14.80;99.90;;;;;;5133348;27;20066;-70
2023/04/16 11:36:46;;;;;;;21.45;12.15;;;14.80;99.90;;;;;;5113859;27;20393;-69
2023/04/16 11:39:12;;;;;;;19.98;11.90;;;14.80;99.90;;;;;;5112922;27;20489;-68
2023/04/16 11:41:42;;;;;;;19.17;11.82;;;14.90;99.90;;;;;;5112740;27;20046;-68
2023/04/16 11:44:26;;;;;;;18.45;10.93;;;15.00;99.90;;;;;;5112615;27;20096;-69
2023/04/16 11:46:52;;;;;;;17.15;11.30;;;15.10;99.90;;;;;;5131328;27;20034;-69
2023/04/16 11:49:30;;;;;;;19.33;11.82;;;15.20;99.90;;;;;;5113045;27;20401;-71
2023/04/16 11:51:57;;;;;;;18.42;11.55;;;15.10;99.90;;;;;;5123742;27;20090;-66
2023/04/16 11:54:23;;;;;;;21.10;12.70;;;15.10;99.90;;;;;;5133664;27;20039;-68
2023/04/16 11:56:51;;;;;;;20.80;12.20;;;15.10;99.90;;;;;;5124789;27;20050;-66
2023/04/16 11:59:22;;;;;;;22.40;12.15;;;15.00;99.90;;;;;;5115979;27;20109;-69
2023/04/16 12:01:54;;;;;;;22.55;12.18;;;15.10;99.90;;;;;;5133761;27;20031;-69
2023/04/16 12:04:23;;;;;;;23.90;12.55;;;15.00;99.90;;;;;;5122667;27;20450;-70
2023/04/16 12:07:09;;;;;;;20.20;11.60;;;15.00;99.90;;;;;;5112120;27;20042;-66
2023/04/16 12:09:37;;;;;;;22.98;12.50;;;15.10;99.90;;;;;;5118948;27;20151;-70
2023/04/16 12:12:03;;;;;;;23.02;12.18;;;15.10;99.90;;;;;;5115425;27;20083;-67
2023/04/16 12:14:30;;;;;;;21.83;12.52;;;15.40;99.90;;;;;;5132548;27;20043;-68
2023/04/16 12:16:57;;;;;;;23.45;13.77;;;15.50;99.90;;;;;;5112522;27;20043;-69
2023/04/16 12:19:22;;;;;;;25.50;12.50;;;15.60;99.90;;;;;;5116146;27;20031;-71
2023/04/16 12:21:49;;;;;;;22.13;12.25;;;15.60;99.90;;;;;;5112710;28;20046;-70
2023/04/16 12:24:23;;;;;;;24.05;12.70;;;15.50;99.90;;;;;;5126491;27;20069;-68
2023/04/16 12:27:01;;;;;;;22.50;12.45;;;15.40;99.90;;;;;;5133156;27;20430;-68
2023/04/16 12:29:27;;;;;;;22.48;12.73;;;15.40;99.90;;;;;;5119032;27;20079;-69
2023/04/16 12:31:53;;;;;;;26.48;13.60;;;15.30;99.90;;;;;;5112317;27;20058;-70